sensor_id;sensor_type;location;lat;lon;timestamp;P1;durP1;ratioP1;P2;durP2;ratioP2
62463;SDS011;48512;48.552;9.380;2022-09-09T00:00:19;3.42;;;1.08;;
62463;SDS011;48512;48.552;9.380;2022-09-09T00:05:52;2.25;;;1.10;;
62463;SDS011;48512;48.552;9.380;2022-09-09T00:11:34;2.33;;;1.00;;
62463;SDS011;48512;48.552;9.380;2022-09-09T00:14:08;1.67;;;0.70;;
62463;SDS011;48512;48.552;9.380;2022-09-09T00:17:00;4.47;;;1.10;;
62463;SDS011;48512;48.552;9.380;2022-09-09T00:19:34;5.47;;;1.08;;
62463;SDS011;48512;48.552;9.380;2022-09-09T00:27:22;5.40;;;1.35;;
62463;SDS011;48512;48.552;9.380;2022-09-09T00:32:36;4.43;;;1.00;;
62463;SDS011;48512;48.552;9.380;2022-09-09T00:35:03;2.13;;;0.90;;
62463;SDS011;48512;48.552;9.380;2022-09-09T00:37:40;4.40;;;0.80;;
62463;SDS011;48512;48.552;9.380;2022-09-09T00:40:29;3.40;;;0.90;;
62463;SDS011;48512;48.552;9.380;2022-09-09T00:43:16;1.48;;;0.98;;
62463;SDS011;48512;48.552;9.380;2022-09-09T01:02:17;3.00;;;1.10;;
62463;SDS011;48512;48.552;9.380;2022-09-09T01:04:47;1.73;;;0.82;;
62463;SDS011;48512;48.552;9.380;2022-09-09T01:07:16;1.25;;;0.80;;
62463;SDS011;48512;48.552;9.380;2022-09-09T01:12:38;2.83;;;0.93;;
62463;SDS011;48512;48.552;9.380;2022-09-09T01:15:28;3.83;;;0.80;;
62463;SDS011;48512;48.552;9.380;2022-09-09T01:18:05;4.18;;;1.02;;
62463;SDS011;48512;48.552;9.380;2022-09-09T01:20:40;3.78;;;1.05;;
62463;SDS011;48512;48.552;9.380;2022-09-09T01:23:28;16.20;;;1.25;;
62463;SDS011;48512;48.552;9.380;2022-09-09T01:26:13;2.95;;;1.00;;
62463;SDS011;48512;48.552;9.380;2022-09-09T01:35:24;1.70;;;0.82;;
62463;SDS011;48512;48.552;9.380;2022-09-09T01:37:57;2.53;;;0.90;;
62463;SDS011;48512;48.552;9.380;2022-09-09T01:40:23;4.65;;;1.40;;
62463;SDS011;48512;48.552;9.380;2022-09-09T01:42:50;2.65;;;1.30;;
62463;SDS011;48512;48.552;9.380;2022-09-09T01:45:17;2.13;;;1.00;;
62463;SDS011;48512;48.552;9.380;2022-09-09T01:47:42;2.72;;;1.13;;
62463;SDS011;48512;48.552;9.380;2022-09-09T01:50:09;4.10;;;1.30;;
62463;SDS011;48512;48.552;9.380;2022-09-09T01:52:37;5.28;;;1.10;;
62463;SDS011;48512;48.552;9.380;2022-09-09T01:55:04;3.17;;;1.13;;
62463;SDS011;48512;48.552;9.380;2022-09-09T01:57:31;3.60;;;0.90;;
62463;SDS011;48512;48.552;9.380;2022-09-09T02:07:45;4.20;;;1.60;;
62463;SDS011;48512;48.552;9.380;2022-09-09T02:12:46;3.20;;;1.75;;
62463;SDS011;48512;48.552;9.380;2022-09-09T02:15:26;3.38;;;1.77;;
62463;SDS011;48512;48.552;9.380;2022-09-09T02:17:57;4.97;;;1.80;;
62463;SDS011;48512;48.552;9.380;2022-09-09T02:20:26;3.80;;;1.58;;
62463;SDS011;48512;48.552;9.380;2022-09-09T02:22:52;5.82;;;1.80;;
62463;SDS011;48512;48.552;9.380;2022-09-09T02:25:21;3.30;;;1.90;;
62463;SDS011;48512;48.552;9.380;2022-09-09T02:27:49;5.63;;;1.80;;
62463;SDS011;48512;48.552;9.380;2022-09-09T02:30:16;4.68;;;1.60;;
62463;SDS011;48512;48.552;9.380;2022-09-09T02:32:43;4.53;;;1.45;;
62463;SDS011;48512;48.552;9.380;2022-09-09T02:35:14;3.75;;;1.67;;
62463;SDS011;48512;48.552;9.380;2022-09-09T02:37:42;9.93;;;1.88;;
62463;SDS011;48512;48.552;9.380;2022-09-09T02:40:11;4.50;;;1.65;;
62463;SDS011;48512;48.552;9.380;2022-09-09T02:42:44;3.65;;;1.73;;
62463;SDS011;48512;48.552;9.380;2022-09-09T02:45:12;4.60;;;2.10;;
62463;SDS011;48512;48.552;9.380;2022-09-09T02:47:51;4.70;;;1.90;;
62463;SDS011;48512;48.552;9.380;2022-09-09T02:50:57;4.32;;;1.50;;
62463;SDS011;48512;48.552;9.380;2022-09-09T02:53:25;7.43;;;1.60;;
62463;SDS011;48512;48.552;9.380;2022-09-09T02:56:05;3.72;;;1.50;;
62463;SDS011;48512;48.552;9.380;2022-09-09T02:58:38;5.43;;;1.48;;
62463;SDS011;48512;48.552;9.380;2022-09-09T03:01:04;5.05;;;1.80;;
62463;SDS011;48512;48.552;9.380;2022-09-09T03:03:30;3.60;;;2.00;;
62463;SDS011;48512;48.552;9.380;2022-09-09T03:05:55;7.28;;;1.67;;
62463;SDS011;48512;48.552;9.380;2022-09-09T03:08:21;8.55;;;1.65;;
62463;SDS011;48512;48.552;9.380;2022-09-09T03:10:47;4.57;;;1.50;;
62463;SDS011;48512;48.552;9.380;2022-09-09T03:13:12;3.67;;;1.60;;
62463;SDS011;48512;48.552;9.380;2022-09-09T03:15:40;4.20;;;1.48;;
62463;SDS011;48512;48.552;9.380;2022-09-09T03:18:05;3.38;;;1.60;;
62463;SDS011;48512;48.552;9.380;2022-09-09T03:20:30;6.30;;;1.60;;
62463;SDS011;48512;48.552;9.380;2022-09-09T03:22:56;4.05;;;1.73;;
62463;SDS011;48512;48.552;9.380;2022-09-09T03:25:22;6.40;;;1.50;;
62463;SDS011;48512;48.552;9.380;2022-09-09T03:27:49;10.48;;;4.88;;
62463;SDS011;48512;48.552;9.380;2022-09-09T03:30:15;10.05;;;4.32;;
62463;SDS011;48512;48.552;9.380;2022-09-09T03:32:41;4.22;;;2.20;;
62463;SDS011;48512;48.552;9.380;2022-09-09T03:35:06;5.57;;;2.13;;
62463;SDS011;48512;48.552;9.380;2022-09-09T03:37:32;3.97;;;1.52;;
62463;SDS011;48512;48.552;9.380;2022-09-09T03:39:57;2.05;;;1.23;;
62463;SDS011;48512;48.552;9.380;2022-09-09T03:42:24;3.00;;;1.33;;
62463;SDS011;48512;48.552;9.380;2022-09-09T03:44:50;3.03;;;1.35;;
62463;SDS011;48512;48.552;9.380;2022-09-09T03:47:19;8.45;;;1.73;;
62463;SDS011;48512;48.552;9.380;2022-09-09T03:49:46;5.68;;;1.33;;
62463;SDS011;48512;48.552;9.380;2022-09-09T03:52:13;3.40;;;1.25;;
62463;SDS011;48512;48.552;9.380;2022-09-09T03:54:39;3.88;;;2.03;;
62463;SDS011;48512;48.552;9.380;2022-09-09T03:57:06;3.58;;;1.60;;
62463;SDS011;48512;48.552;9.380;2022-09-09T03:59:31;4.47;;;1.50;;
62463;SDS011;48512;48.552;9.380;2022-09-09T04:01:57;5.32;;;1.45;;
62463;SDS011;48512;48.552;9.380;2022-09-09T04:04:24;3.75;;;1.05;;
62463;SDS011;48512;48.552;9.380;2022-09-09T04:06:51;3.75;;;1.63;;
62463;SDS011;48512;48.552;9.380;2022-09-09T04:09:17;4.30;;;2.58;;
62463;SDS011;48512;48.552;9.380;2022-09-09T04:11:42;3.55;;;2.13;;
62463;SDS011;48512;48.552;9.380;2022-09-09T04:14:07;8.85;;;3.80;;
62463;SDS011;48512;48.552;9.380;2022-09-09T04:16:33;6.03;;;2.92;;
62463;SDS011;48512;48.552;9.380;2022-09-09T04:19:02;3.65;;;1.58;;
62463;SDS011;48512;48.552;9.380;2022-09-09T04:21:29;4.57;;;1.45;;
62463;SDS011;48512;48.552;9.380;2022-09-09T04:23:55;5.47;;;1.38;;
62463;SDS011;48512;48.552;9.380;2022-09-09T04:26:21;3.78;;;1.65;;
62463;SDS011;48512;48.552;9.380;2022-09-09T04:28:46;2.38;;;1.42;;
62463;SDS011;48512;48.552;9.380;2022-09-09T04:31:16;3.85;;;1.38;;
62463;SDS011;48512;48.552;9.380;2022-09-09T04:33:45;4.60;;;1.80;;
62463;SDS011;48512;48.552;9.380;2022-09-09T04:36:11;3.28;;;1.65;;
62463;SDS011;48512;48.552;9.380;2022-09-09T04:38:37;3.97;;;1.60;;
62463;SDS011;48512;48.552;9.380;2022-09-09T04:41:03;3.05;;;1.20;;
62463;SDS011;48512;48.552;9.380;2022-09-09T04:43:29;5.10;;;1.50;;
62463;SDS011;48512;48.552;9.380;2022-09-09T04:45:55;6.57;;;1.60;;
62463;SDS011;48512;48.552;9.380;2022-09-09T04:48:21;3.63;;;1.60;;
62463;SDS011;48512;48.552;9.380;2022-09-09T04:50:56;4.78;;;1.35;;
62463;SDS011;48512;48.552;9.380;2022-09-09T04:53:24;3.45;;;1.65;;
62463;SDS011;48512;48.552;9.380;2022-09-09T04:55:51;3.55;;;1.50;;
62463;SDS011;48512;48.552;9.380;2022-09-09T04:58:29;3.97;;;1.50;;
62463;SDS011;48512;48.552;9.380;2022-09-09T05:00:55;3.30;;;1.45;;
62463;SDS011;48512;48.552;9.380;2022-09-09T05:03:20;2.58;;;1.20;;
62463;SDS011;48512;48.552;9.380;2022-09-09T05:05:46;4.43;;;1.60;;
62463;SDS011;48512;48.552;9.380;2022-09-09T05:08:18;5.93;;;1.85;;
62463;SDS011;48512;48.552;9.380;2022-09-09T05:10:44;2.92;;;1.73;;
62463;SDS011;48512;48.552;9.380;2022-09-09T05:13:09;2.53;;;1.60;;
62463;SDS011;48512;48.552;9.380;2022-09-09T05:15:36;4.30;;;1.60;;
62463;SDS011;48512;48.552;9.380;2022-09-09T05:18:02;2.95;;;1.48;;
62463;SDS011;48512;48.552;9.380;2022-09-09T05:20:27;2.97;;;1.45;;
62463;SDS011;48512;48.552;9.380;2022-09-09T05:22:53;3.97;;;1.50;;
62463;SDS011;48512;48.552;9.380;2022-09-09T05:25:22;1.92;;;1.33;;
62463;SDS011;48512;48.552;9.380;2022-09-09T05:27:52;5.05;;;1.75;;
62463;SDS011;48512;48.552;9.380;2022-09-09T05:30:18;3.42;;;1.80;;
62463;SDS011;48512;48.552;9.380;2022-09-09T05:32:44;6.93;;;2.08;;
62463;SDS011;48512;48.552;9.380;2022-09-09T05:35:10;4.00;;;1.63;;
62463;SDS011;48512;48.552;9.380;2022-09-09T05:37:35;4.10;;;2.10;;
62463;SDS011;48512;48.552;9.380;2022-09-09T05:40:00;3.83;;;1.80;;
62463;SDS011;48512;48.552;9.380;2022-09-09T05:42:29;4.80;;;1.55;;
62463;SDS011;48512;48.552;9.380;2022-09-09T05:44:55;2.80;;;1.50;;
62463;SDS011;48512;48.552;9.380;2022-09-09T05:47:21;4.15;;;1.60;;
62463;SDS011;48512;48.552;9.380;2022-09-09T05:49:46;5.38;;;1.70;;
62463;SDS011;48512;48.552;9.380;2022-09-09T05:52:12;3.60;;;1.42;;
62463;SDS011;48512;48.552;9.380;2022-09-09T05:54:37;4.50;;;1.55;;
62463;SDS011;48512;48.552;9.380;2022-09-09T05:57:02;4.70;;;1.50;;
62463;SDS011;48512;48.552;9.380;2022-09-09T05:59:28;3.58;;;1.40;;
62463;SDS011;48512;48.552;9.380;2022-09-09T06:01:54;2.47;;;1.27;;
62463;SDS011;48512;48.552;9.380;2022-09-09T06:04:19;3.75;;;1.73;;
62463;SDS011;48512;48.552;9.380;2022-09-09T06:06:47;1.55;;;1.25;;
62463;SDS011;48512;48.552;9.380;2022-09-09T06:09:13;3.33;;;2.47;;
62463;SDS011;48512;48.552;9.380;2022-09-09T06:11:40;4.63;;;1.75;;
62463;SDS011;48512;48.552;9.380;2022-09-09T06:14:06;3.85;;;1.33;;
62463;SDS011;48512;48.552;9.380;2022-09-09T06:16:32;4.90;;;1.73;;
62463;SDS011;48512;48.552;9.380;2022-09-09T06:18:59;2.47;;;1.58;;
62463;SDS011;48512;48.552;9.380;2022-09-09T06:21:29;3.15;;;1.65;;
62463;SDS011;48512;48.552;9.380;2022-09-09T06:23:57;2.03;;;1.40;;
62463;SDS011;48512;48.552;9.380;2022-09-09T06:28:58;4.18;;;2.05;;
62463;SDS011;48512;48.552;9.380;2022-09-09T06:31:25;6.70;;;3.13;;
62463;SDS011;48512;48.552;9.380;2022-09-09T06:33:55;3.90;;;1.73;;
62463;SDS011;48512;48.552;9.380;2022-09-09T06:36:22;10.52;;;4.93;;
62463;SDS011;48512;48.552;9.380;2022-09-09T06:38:50;5.45;;;2.75;;
62463;SDS011;48512;48.552;9.380;2022-09-09T06:41:16;7.03;;;2.47;;
62463;SDS011;48512;48.552;9.380;2022-09-09T06:43:43;2.55;;;1.55;;
62463;SDS011;48512;48.552;9.380;2022-09-09T06:46:13;6.05;;;1.52;;
62463;SDS011;48512;48.552;9.380;2022-09-09T06:48:48;5.47;;;2.42;;
62463;SDS011;48512;48.552;9.380;2022-09-09T06:51:15;6.05;;;2.53;;
62463;SDS011;48512;48.552;9.380;2022-09-09T06:53:42;3.38;;;1.63;;
62463;SDS011;48512;48.552;9.380;2022-09-09T06:58:34;3.33;;;1.40;;
62463;SDS011;48512;48.552;9.380;2022-09-09T07:01:04;3.92;;;1.48;;
62463;SDS011;48512;48.552;9.380;2022-09-09T07:03:30;5.03;;;1.77;;
62463;SDS011;48512;48.552;9.380;2022-09-09T07:05:56;7.50;;;2.35;;
62463;SDS011;48512;48.552;9.380;2022-09-09T07:08:22;3.40;;;1.50;;
62463;SDS011;48512;48.552;9.380;2022-09-09T07:10:48;2.85;;;1.70;;
62463;SDS011;48512;48.552;9.380;2022-09-09T07:13:14;4.22;;;1.60;;
62463;SDS011;48512;48.552;9.380;2022-09-09T07:15:40;5.35;;;1.80;;
62463;SDS011;48512;48.552;9.380;2022-09-09T07:18:07;6.90;;;1.55;;
62463;SDS011;48512;48.552;9.380;2022-09-09T07:20:35;1.58;;;1.20;;
62463;SDS011;48512;48.552;9.380;2022-09-09T07:23:00;3.28;;;1.45;;
62463;SDS011;48512;48.552;9.380;2022-09-09T07:25:26;4.25;;;1.40;;
62463;SDS011;48512;48.552;9.380;2022-09-09T07:27:53;3.58;;;1.50;;
62463;SDS011;48512;48.552;9.380;2022-09-09T07:30:19;4.20;;;1.60;;
62463;SDS011;48512;48.552;9.380;2022-09-09T07:32:45;8.80;;;2.33;;
62463;SDS011;48512;48.552;9.380;2022-09-09T07:35:10;5.20;;;2.70;;
62463;SDS011;48512;48.552;9.380;2022-09-09T07:37:36;7.70;;;2.88;;
62463;SDS011;48512;48.552;9.380;2022-09-09T07:40:02;3.75;;;1.80;;
62463;SDS011;48512;48.552;9.380;2022-09-09T07:42:28;6.30;;;1.80;;
62463;SDS011;48512;48.552;9.380;2022-09-09T07:44:54;3.33;;;1.50;;
62463;SDS011;48512;48.552;9.380;2022-09-09T07:47:20;3.75;;;1.38;;
62463;SDS011;48512;48.552;9.380;2022-09-09T07:49:46;5.20;;;2.30;;
62463;SDS011;48512;48.552;9.380;2022-09-09T07:52:12;6.03;;;1.90;;
62463;SDS011;48512;48.552;9.380;2022-09-09T07:54:41;4.85;;;1.52;;
62463;SDS011;48512;48.552;9.380;2022-09-09T07:57:23;2.97;;;2.00;;
62463;SDS011;48512;48.552;9.380;2022-09-09T08:00:17;5.47;;;1.60;;
62463;SDS011;48512;48.552;9.380;2022-09-09T08:02:44;3.58;;;1.30;;
62463;SDS011;48512;48.552;9.380;2022-09-09T08:05:11;6.10;;;1.50;;
62463;SDS011;48512;48.552;9.380;2022-09-09T08:07:37;2.03;;;1.40;;
62463;SDS011;48512;48.552;9.380;2022-09-09T08:10:03;3.55;;;1.58;;
62463;SDS011;48512;48.552;9.380;2022-09-09T08:12:29;4.55;;;1.60;;
62463;SDS011;48512;48.552;9.380;2022-09-09T08:14:54;3.30;;;1.45;;
62463;SDS011;48512;48.552;9.380;2022-09-09T08:17:20;4.20;;;1.92;;
62463;SDS011;48512;48.552;9.380;2022-09-09T08:19:45;6.28;;;2.10;;
62463;SDS011;48512;48.552;9.380;2022-09-09T08:22:10;6.13;;;1.33;;
62463;SDS011;48512;48.552;9.380;2022-09-09T08:24:36;3.80;;;1.95;;
62463;SDS011;48512;48.552;9.380;2022-09-09T08:27:01;3.70;;;1.40;;
62463;SDS011;48512;48.552;9.380;2022-09-09T08:29:27;6.22;;;1.60;;
62463;SDS011;48512;48.552;9.380;2022-09-09T08:31:54;5.15;;;1.50;;
62463;SDS011;48512;48.552;9.380;2022-09-09T08:34:22;3.10;;;1.58;;
62463;SDS011;48512;48.552;9.380;2022-09-09T08:36:49;4.05;;;1.52;;
62463;SDS011;48512;48.552;9.380;2022-09-09T08:39:16;3.17;;;1.60;;
62463;SDS011;48512;48.552;9.380;2022-09-09T08:50:21;4.32;;;1.40;;
62463;SDS011;48512;48.552;9.380;2022-09-09T08:52:54;5.65;;;1.80;;
62463;SDS011;48512;48.552;9.380;2022-09-09T08:58:01;3.97;;;1.20;;
62463;SDS011;48512;48.552;9.380;2022-09-09T09:00:39;6.60;;;1.58;;
62463;SDS011;48512;48.552;9.380;2022-09-09T09:08:44;4.93;;;1.38;;
62463;SDS011;48512;48.552;9.380;2022-09-09T09:11:16;4.38;;;1.50;;
62463;SDS011;48512;48.552;9.380;2022-09-09T09:13:50;4.25;;;1.27;;
62463;SDS011;48512;48.552;9.380;2022-09-09T09:17:23;4.55;;;1.48;;
62463;SDS011;48512;48.552;9.380;2022-09-09T09:19:22;6.25;;;1.30;;
62463;SDS011;48512;48.552;9.380;2022-09-09T09:25:05;4.43;;;1.30;;
62463;SDS011;48512;48.552;9.380;2022-09-09T09:30:23;4.88;;;1.35;;
62463;SDS011;48512;48.552;9.380;2022-09-09T09:32:56;3.67;;;1.10;;
62463;SDS011;48512;48.552;9.380;2022-09-09T09:35:25;5.45;;;1.42;;
62463;SDS011;48512;48.552;9.380;2022-09-09T09:37:50;5.72;;;1.15;;
62463;SDS011;48512;48.552;9.380;2022-09-09T09:40:18;2.88;;;0.88;;
62463;SDS011;48512;48.552;9.380;2022-09-09T09:42:51;2.80;;;1.02;;
62463;SDS011;48512;48.552;9.380;2022-09-09T09:45:26;4.45;;;1.20;;
62463;SDS011;48512;48.552;9.380;2022-09-09T09:48:01;3.75;;;0.90;;
62463;SDS011;48512;48.552;9.380;2022-09-09T09:50:28;2.50;;;1.10;;
62463;SDS011;48512;48.552;9.380;2022-09-09T09:52:58;4.80;;;1.02;;
62463;SDS011;48512;48.552;9.380;2022-09-09T09:55:28;2.83;;;1.00;;
62463;SDS011;48512;48.552;9.380;2022-09-09T09:58:00;2.80;;;1.20;;
62463;SDS011;48512;48.552;9.380;2022-09-09T10:00:27;5.32;;;1.20;;
62463;SDS011;48512;48.552;9.380;2022-09-09T10:02:52;5.07;;;1.20;;
62463;SDS011;48512;48.552;9.380;2022-09-09T10:08:00;3.08;;;0.93;;
62463;SDS011;48512;48.552;9.380;2022-09-09T10:10:40;4.97;;;1.10;;
62463;SDS011;48512;48.552;9.380;2022-09-09T10:13:27;4.07;;;1.13;;
62463;SDS011;48512;48.552;9.380;2022-09-09T10:26:55;4.15;;;1.20;;
62463;SDS011;48512;48.552;9.380;2022-09-09T10:29:39;5.25;;;0.98;;
62463;SDS011;48512;48.552;9.380;2022-09-09T10:37:58;5.68;;;1.65;;
62463;SDS011;48512;48.552;9.380;2022-09-09T10:40:38;4.35;;;1.10;;
62463;SDS011;48512;48.552;9.380;2022-09-09T10:46:08;2.97;;;1.00;;
62463;SDS011;48512;48.552;9.380;2022-09-09T10:54:11;2.75;;;0.90;;
62463;SDS011;48512;48.552;9.380;2022-09-09T10:56:52;4.18;;;1.13;;
62463;SDS011;48512;48.552;9.380;2022-09-09T10:59:30;4.32;;;1.13;;
62463;SDS011;48512;48.552;9.380;2022-09-09T11:02:12;4.68;;;0.80;;
62463;SDS011;48512;48.552;9.380;2022-09-09T11:07:25;3.38;;;0.98;;
62463;SDS011;48512;48.552;9.380;2022-09-09T11:10:21;2.10;;;0.88;;
62463;SDS011;48512;48.552;9.380;2022-09-09T11:12:52;2.22;;;1.05;;
62463;SDS011;48512;48.552;9.380;2022-09-09T11:15:31;3.63;;;1.02;;
62463;SDS011;48512;48.552;9.380;2022-09-09T11:18:04;3.17;;;1.10;;
62463;SDS011;48512;48.552;9.380;2022-09-09T11:20:31;3.85;;;0.98;;
62463;SDS011;48512;48.552;9.380;2022-09-09T11:25:32;4.38;;;0.73;;
62463;SDS011;48512;48.552;9.380;2022-09-09T11:28:19;1.85;;;1.00;;
62463;SDS011;48512;48.552;9.380;2022-09-09T11:33:52;4.63;;;0.93;;
62463;SDS011;48512;48.552;9.380;2022-09-09T11:42:22;3.00;;;1.20;;
62463;SDS011;48512;48.552;9.380;2022-09-09T11:44:49;6.10;;;0.73;;
62463;SDS011;48512;48.552;9.380;2022-09-09T11:47:20;3.00;;;1.00;;
62463;SDS011;48512;48.552;9.380;2022-09-09T11:50:06;2.63;;;0.85;;
62463;SDS011;48512;48.552;9.380;2022-09-09T11:55:38;5.90;;;1.35;;
62463;SDS011;48512;48.552;9.380;2022-09-09T11:58:05;2.90;;;0.85;;
62463;SDS011;48512;48.552;9.380;2022-09-09T12:05:57;4.30;;;0.98;;
62463;SDS011;48512;48.552;9.380;2022-09-09T12:08:27;3.08;;;0.90;;
62463;SDS011;48512;48.552;9.380;2022-09-09T12:10:55;5.50;;;1.00;;
62463;SDS011;48512;48.552;9.380;2022-09-09T12:13:22;6.65;;;0.90;;
62463;SDS011;48512;48.552;9.380;2022-09-09T12:15:50;3.22;;;0.85;;
62463;SDS011;48512;48.552;9.380;2022-09-09T12:23:45;3.53;;;0.80;;
62463;SDS011;48512;48.552;9.380;2022-09-09T12:34:17;1.60;;;0.50;;
62463;SDS011;48512;48.552;9.380;2022-09-09T12:36:52;1.45;;;0.70;;
62463;SDS011;48512;48.552;9.380;2022-09-09T12:39:28;3.42;;;0.70;;
62463;SDS011;48512;48.552;9.380;2022-09-09T12:41:58;3.63;;;0.60;;
62463;SDS011;48512;48.552;9.380;2022-09-09T12:44:24;3.78;;;0.60;;
62463;SDS011;48512;48.552;9.380;2022-09-09T12:46:50;4.00;;;0.73;;
62463;SDS011;48512;48.552;9.380;2022-09-09T12:51:55;4.05;;;0.40;;
62463;SDS011;48512;48.552;9.380;2022-09-09T12:54:22;2.92;;;0.60;;
62463;SDS011;48512;48.552;9.380;2022-09-09T12:56:48;3.03;;;0.50;;
62463;SDS011;48512;48.552;9.380;2022-09-09T12:59:25;2.40;;;0.50;;
62463;SDS011;48512;48.552;9.380;2022-09-09T13:01:59;4.95;;;0.88;;
62463;SDS011;48512;48.552;9.380;2022-09-09T13:04:25;5.85;;;1.00;;
62463;SDS011;48512;48.552;9.380;2022-09-09T13:06:50;4.00;;;0.88;;
62463;SDS011;48512;48.552;9.380;2022-09-09T13:09:17;4.75;;;0.80;;
62463;SDS011;48512;48.552;9.380;2022-09-09T13:11:50;5.05;;;0.80;;
62463;SDS011;48512;48.552;9.380;2022-09-09T13:14:28;3.05;;;0.70;;
62463;SDS011;48512;48.552;9.380;2022-09-09T13:17:01;4.63;;;0.80;;
62463;SDS011;48512;48.552;9.380;2022-09-09T13:19:32;3.85;;;0.70;;
62463;SDS011;48512;48.552;9.380;2022-09-09T13:22:10;4.03;;;0.75;;
62463;SDS011;48512;48.552;9.380;2022-09-09T13:24:43;2.85;;;0.77;;
62463;SDS011;48512;48.552;9.380;2022-09-09T13:27:26;5.15;;;0.60;;
62463;SDS011;48512;48.552;9.380;2022-09-09T13:29:54;3.13;;;0.70;;
62463;SDS011;48512;48.552;9.380;2022-09-09T13:32:21;2.03;;;0.70;;
62463;SDS011;48512;48.552;9.380;2022-09-09T13:34:55;3.22;;;0.68;;
62463;SDS011;48512;48.552;9.380;2022-09-09T13:37:33;2.55;;;0.60;;
62463;SDS011;48512;48.552;9.380;2022-09-09T13:39:59;5.72;;;0.60;;
62463;SDS011;48512;48.552;9.380;2022-09-09T13:42:29;2.90;;;0.60;;
62463;SDS011;48512;48.552;9.380;2022-09-09T13:44:57;3.33;;;0.50;;
62463;SDS011;48512;48.552;9.380;2022-09-09T13:47:34;1.20;;;0.40;;
62463;SDS011;48512;48.552;9.380;2022-09-09T13:52:51;1.40;;;0.50;;
62463;SDS011;48512;48.552;9.380;2022-09-09T13:55:18;1.95;;;0.63;;
62463;SDS011;48512;48.552;9.380;2022-09-09T13:57:50;2.90;;;0.65;;
62463;SDS011;48512;48.552;9.380;2022-09-09T14:00:19;5.05;;;0.80;;
62463;SDS011;48512;48.552;9.380;2022-09-09T14:02:46;3.88;;;0.60;;
62463;SDS011;48512;48.552;9.380;2022-09-09T14:05:12;3.03;;;0.60;;
62463;SDS011;48512;48.552;9.380;2022-09-09T14:07:38;2.83;;;0.70;;
62463;SDS011;48512;48.552;9.380;2022-09-09T14:10:05;4.32;;;0.73;;
62463;SDS011;48512;48.552;9.380;2022-09-09T14:12:31;4.68;;;0.73;;
62463;SDS011;48512;48.552;9.380;2022-09-09T14:14:57;1.80;;;0.63;;
62463;SDS011;48512;48.552;9.380;2022-09-09T14:17:24;2.42;;;0.80;;
62463;SDS011;48512;48.552;9.380;2022-09-09T14:19:52;1.08;;;0.40;;
62463;SDS011;48512;48.552;9.380;2022-09-09T14:22:17;1.67;;;0.50;;
62463;SDS011;48512;48.552;9.380;2022-09-09T14:24:43;3.88;;;0.77;;
62463;SDS011;48512;48.552;9.380;2022-09-09T14:27:08;6.90;;;0.82;;
62463;SDS011;48512;48.552;9.380;2022-09-09T14:29:34;3.63;;;0.55;;
62463;SDS011;48512;48.552;9.380;2022-09-09T14:31:59;3.55;;;0.63;;
62463;SDS011;48512;48.552;9.380;2022-09-09T14:34:26;4.95;;;0.93;;
62463;SDS011;48512;48.552;9.380;2022-09-09T14:36:51;2.78;;;0.70;;
62463;SDS011;48512;48.552;9.380;2022-09-09T14:39:17;3.40;;;0.70;;
62463;SDS011;48512;48.552;9.380;2022-09-09T14:41:42;2.80;;;0.85;;
62463;SDS011;48512;48.552;9.380;2022-09-09T14:44:08;5.18;;;0.80;;
62463;SDS011;48512;48.552;9.380;2022-09-09T14:46:33;2.75;;;0.68;;
62463;SDS011;48512;48.552;9.380;2022-09-09T14:48:59;4.25;;;0.68;;
62463;SDS011;48512;48.552;9.380;2022-09-09T14:51:24;1.33;;;0.47;;
62463;SDS011;48512;48.552;9.380;2022-09-09T14:53:52;4.65;;;1.27;;
62463;SDS011;48512;48.552;9.380;2022-09-09T14:56:23;2.17;;;0.60;;
62463;SDS011;48512;48.552;9.380;2022-09-09T14:58:52;1.27;;;0.60;;
62463;SDS011;48512;48.552;9.380;2022-09-09T15:01:20;2.40;;;0.57;;
62463;SDS011;48512;48.552;9.380;2022-09-09T15:03:50;1.83;;;0.57;;
62463;SDS011;48512;48.552;9.380;2022-09-09T15:06:17;2.92;;;0.60;;
62463;SDS011;48512;48.552;9.380;2022-09-09T15:08:43;2.35;;;0.70;;
62463;SDS011;48512;48.552;9.380;2022-09-09T15:11:11;4.15;;;0.63;;
62463;SDS011;48512;48.552;9.380;2022-09-09T15:13:37;2.08;;;0.65;;
62463;SDS011;48512;48.552;9.380;2022-09-09T15:18:31;1.63;;;0.40;;
62463;SDS011;48512;48.552;9.380;2022-09-09T15:20:58;5.60;;;0.70;;
62463;SDS011;48512;48.552;9.380;2022-09-09T15:23:24;2.75;;;0.68;;
62463;SDS011;48512;48.552;9.380;2022-09-09T15:25:53;1.30;;;0.50;;
62463;SDS011;48512;48.552;9.380;2022-09-09T15:28:20;1.67;;;0.47;;
62463;SDS011;48512;48.552;9.380;2022-09-09T15:30:49;2.40;;;0.60;;
62463;SDS011;48512;48.552;9.380;2022-09-09T15:33:16;3.03;;;0.50;;
62463;SDS011;48512;48.552;9.380;2022-09-09T15:35:42;1.80;;;0.47;;
62463;SDS011;48512;48.552;9.380;2022-09-09T15:38:07;2.88;;;0.60;;
62463;SDS011;48512;48.552;9.380;2022-09-09T15:40:33;4.00;;;0.70;;
62463;SDS011;48512;48.552;9.380;2022-09-09T15:42:58;4.22;;;0.70;;
62463;SDS011;48512;48.552;9.380;2022-09-09T15:45:24;2.55;;;0.68;;
62463;SDS011;48512;48.552;9.380;2022-09-09T15:47:49;1.60;;;0.85;;
62463;SDS011;48512;48.552;9.380;2022-09-09T15:50:15;5.07;;;0.90;;
62463;SDS011;48512;48.552;9.380;2022-09-09T15:52:41;2.35;;;1.00;;
62463;SDS011;48512;48.552;9.380;2022-09-09T15:55:06;4.47;;;1.38;;
62463;SDS011;48512;48.552;9.380;2022-09-09T15:57:33;2.35;;;0.50;;
62463;SDS011;48512;48.552;9.380;2022-09-09T15:59:59;3.70;;;0.70;;
62463;SDS011;48512;48.552;9.380;2022-09-09T16:02:25;11.68;;;2.00;;
62463;SDS011;48512;48.552;9.380;2022-09-09T16:04:50;2.95;;;0.90;;
62463;SDS011;48512;48.552;9.380;2022-09-09T16:07:16;4.70;;;1.00;;
62463;SDS011;48512;48.552;9.380;2022-09-09T16:09:41;5.07;;;0.68;;
62463;SDS011;48512;48.552;9.380;2022-09-09T16:12:08;0.65;;;0.40;;
62463;SDS011;48512;48.552;9.380;2022-09-09T16:14:38;0.98;;;0.40;;
62463;SDS011;48512;48.552;9.380;2022-09-09T16:17:04;3.63;;;1.45;;
62463;SDS011;48512;48.552;9.380;2022-09-09T16:19:31;2.28;;;0.70;;
62463;SDS011;48512;48.552;9.380;2022-09-09T16:21:57;9.52;;;1.10;;
62463;SDS011;48512;48.552;9.380;2022-09-09T16:24:23;12.80;;;1.08;;
62463;SDS011;48512;48.552;9.380;2022-09-09T16:26:52;14.25;;;1.85;;
62463;SDS011;48512;48.552;9.380;2022-09-09T16:29:19;1.83;;;0.30;;
62463;SDS011;48512;48.552;9.380;2022-09-09T16:31:47;6.03;;;0.68;;
62463;SDS011;48512;48.552;9.380;2022-09-09T16:34:14;2.33;;;1.20;;
62463;SDS011;48512;48.552;9.380;2022-09-09T16:36:42;2.80;;;0.70;;
62463;SDS011;48512;48.552;9.380;2022-09-09T16:39:10;1.10;;;0.40;;
62463;SDS011;48512;48.552;9.380;2022-09-09T16:41:37;3.78;;;0.40;;
62463;SDS011;48512;48.552;9.380;2022-09-09T16:44:05;1.02;;;0.30;;
62463;SDS011;48512;48.552;9.380;2022-09-09T16:46:33;2.92;;;0.50;;
62463;SDS011;48512;48.552;9.380;2022-09-09T16:49:00;1.80;;;0.50;;
62463;SDS011;48512;48.552;9.380;2022-09-09T16:51:29;2.05;;;0.50;;
62463;SDS011;48512;48.552;9.380;2022-09-09T16:54:03;2.70;;;0.40;;
62463;SDS011;48512;48.552;9.380;2022-09-09T16:56:32;2.80;;;0.65;;
62463;SDS011;48512;48.552;9.380;2022-09-09T16:59:00;2.80;;;0.90;;
62463;SDS011;48512;48.552;9.380;2022-09-09T17:01:27;5.22;;;2.20;;
62463;SDS011;48512;48.552;9.380;2022-09-09T17:03:56;3.40;;;1.20;;
62463;SDS011;48512;48.552;9.380;2022-09-09T17:06:23;4.18;;;0.70;;
62463;SDS011;48512;48.552;9.380;2022-09-09T17:08:53;3.65;;;1.40;;
62463;SDS011;48512;48.552;9.380;2022-09-09T17:11:23;5.00;;;2.33;;
62463;SDS011;48512;48.552;9.380;2022-09-09T17:13:49;11.15;;;5.07;;
62463;SDS011;48512;48.552;9.380;2022-09-09T17:16:17;5.95;;;3.28;;
62463;SDS011;48512;48.552;9.380;2022-09-09T17:18:43;7.15;;;2.70;;
62463;SDS011;48512;48.552;9.380;2022-09-09T17:21:14;7.82;;;3.05;;
62463;SDS011;48512;48.552;9.380;2022-09-09T17:23:42;12.65;;;4.47;;
62463;SDS011;48512;48.552;9.380;2022-09-09T17:26:09;22.63;;;12.18;;
62463;SDS011;48512;48.552;9.380;2022-09-09T17:28:36;7.10;;;3.33;;